createdAt,value
2023-03-01T00:02:15.323Z,82.81
2023-03-01T00:04:48.457Z,81.34
2023-03-01T00:07:21.441Z,83.04
2023-03-01T00:09:55.020Z,82.75
2023-03-01T00:12:28.717Z,82.17
2023-03-01T00:15:01.699Z,82.97
2023-03-01T00:17:35.990Z,82.80
2023-03-01T00:20:11.275Z,82.31
2023-03-01T00:22:44.224Z,82.46
2023-03-01T00:25:17.250Z,83.76
2023-03-01T00:27:50.727Z,81.96
2023-03-01T00:30:23.678Z,82.20
2023-03-01T00:32:57.930Z,82.44
2023-03-01T00:35:30.949Z,83.07
2023-03-01T00:38:04.934Z,82.15
2023-03-01T00:40:38.834Z,83.55
2023-03-01T00:43:12.164Z,82.61
2023-03-01T00:45:45.204Z,82.88
2023-03-01T00:48:19.525Z,82.53
2023-03-01T00:50:52.487Z,83.70
2023-03-01T00:53:25.522Z,83.28
2023-03-01T00:55:59.835Z,83.62
2023-03-01T00:58:32.970Z,84.33
2023-03-01T01:01:18.486Z,82.74
2023-03-01T01:03:55.688Z,84.02
2023-03-01T01:06:32.231Z,83.89
2023-03-01T01:09:07.944Z,85.12
2023-03-01T01:11:40.984Z,83.91
2023-03-01T01:14:14.320Z,84.51
2023-03-01T01:16:47.636Z,84.10
2023-03-01T01:19:22.267Z,84.27
2023-03-01T01:21:55.696Z,83.97
2023-03-01T01:24:28.802Z,83.37
2023-03-01T01:27:01.770Z,83.31
2023-03-01T01:29:34.845Z,83.22
2023-03-01T01:32:07.905Z,83.35
2023-03-01T01:34:42.316Z,83.08
2023-03-01T01:37:15.368Z,84.35
2023-03-01T01:39:48.319Z,83.70
2023-03-01T01:42:21.415Z,84.14
2023-03-01T01:45:30.732Z,82.83
2023-03-01T01:48:08.946Z,83.46
2023-03-01T01:50:45.884Z,84.13
2023-03-01T01:53:21.965Z,83.78
2023-03-01T01:55:58.944Z,83.83
2023-03-01T01:58:32.880Z,82.67
2023-03-01T02:01:07.070Z,82.98
2023-03-01T02:03:43.997Z,83.35
2023-03-01T02:06:23.648Z,81.55
2023-03-01T02:08:59.974Z,82.07
2023-03-01T02:11:38.718Z,80.82
2023-03-01T02:14:11.869Z,81.59
2023-03-01T02:16:45.176Z,81.54
2023-03-01T02:19:33.157Z,80.37
2023-03-01T02:22:17.393Z,80.47
2023-03-01T02:25:02.883Z,80.91
2023-03-01T02:27:49.300Z,79.80
2023-03-01T02:30:24.877Z,79.87
2023-03-01T02:33:03.456Z,80.42
2023-03-01T02:35:40.755Z,80.18
2023-03-01T02:38:13.851Z,80.53
2023-03-01T02:40:46.970Z,80.17
2023-03-01T02:43:23.176Z,79.17
2023-03-01T02:46:05.955Z,79.50
2023-03-01T02:48:45.983Z,79.01
2023-03-01T02:51:36.180Z,79.43
2023-03-01T02:54:20.055Z,79.07
2023-03-01T02:56:53.891Z,79.62
2023-03-01T02:59:31.419Z,78.94
2023-03-01T03:02:05.695Z,79.76
2023-03-01T03:04:38.886Z,79.12
2023-03-01T03:07:11.811Z,78.59
2023-03-01T03:09:44.731Z,78.46
2023-03-01T03:12:17.667Z,78.32
2023-03-01T03:14:50.613Z,78.27
2023-03-01T03:17:25.406Z,78.29
2023-03-01T03:19:58.356Z,78.42
2023-03-01T03:22:31.415Z,78.54
2023-03-01T03:25:04.557Z,78.17
2023-03-01T03:27:37.531Z,78.26
2023-03-01T03:30:14.617Z,77.33
2023-03-01T03:32:53.279Z,77.16
2023-03-01T03:35:31.065Z,78.14
2023-03-01T03:38:07.719Z,78.19
2023-03-01T03:40:43.562Z,78.61
2023-03-01T03:43:19.830Z,78.47
2023-03-01T03:45:55.002Z,78.44
2023-03-01T03:48:29.848Z,77.74
2023-03-01T03:51:02.957Z,77.80
2023-03-01T03:53:36.479Z,78.35
2023-03-01T03:56:09.950Z,77.92
2023-03-01T03:58:43.147Z,77.88
2023-03-01T04:01:16.362Z,78.29
2023-03-01T04:03:55.369Z,78.04
2023-03-01T04:06:28.816Z,78.21
2023-03-01T04:09:03.975Z,78.00
2023-03-01T04:11:37.012Z,78.24
2023-03-01T04:14:10.098Z,78.16
2023-03-01T04:16:43.306Z,78.27
2023-03-01T04:19:17.678Z,78.30
2023-03-01T04:21:50.966Z,78.31
2023-03-01T04:24:23.982Z,78.25
2023-03-01T04:26:57.012Z,77.76
2023-03-01T04:29:30.499Z,78.07
2023-03-01T04:32:04.059Z,78.22
2023-03-01T04:34:38.852Z,76.73
2023-03-01T04:37:11.887Z,76.98
2023-03-01T04:39:46.693Z,77.22
2023-03-01T04:42:20.635Z,77.22
2023-03-01T04:44:53.823Z,77.04
2023-03-01T04:47:26.849Z,77.44
2023-03-01T04:50:01.304Z,77.08
2023-03-01T04:52:34.436Z,76.54
2023-03-01T04:55:09.188Z,76.57
2023-03-01T04:57:42.349Z,75.58
2023-03-01T05:00:22.969Z,76.15
2023-03-01T05:02:58.420Z,76.22
2023-03-01T05:05:36.100Z,75.96
2023-03-01T05:08:18.341Z,75.75
2023-03-01T05:10:53.944Z,76.08
2023-03-01T05:13:27.215Z,75.25
2023-03-01T05:16:02.987Z,75.27
2023-03-01T05:18:36.510Z,74.50
2023-03-01T05:21:13.464Z,73.94
2023-03-01T05:23:47.867Z,74.26
2023-03-01T05:26:28.930Z,74.96
2023-03-01T05:29:02.141Z,75.01
2023-03-01T05:31:35.210Z,74.93
2023-03-01T05:34:08.433Z,75.41
2023-03-01T05:36:42.900Z,74.76
2023-03-01T05:39:15.916Z,74.74
2023-03-01T05:41:49.067Z,74.98
2023-03-01T05:44:22.771Z,75.02
2023-03-01T05:46:57.392Z,74.86
2023-03-01T05:49:31.165Z,75.19
2023-03-01T05:52:05.825Z,75.21
2023-03-01T05:54:39.671Z,74.99
2023-03-01T05:57:12.829Z,75.39
2023-03-01T05:59:45.905Z,75.09
2023-03-01T06:02:19.561Z,75.28
2023-03-01T06:04:53.099Z,74.55
2023-03-01T06:07:27.746Z,73.75
2023-03-01T06:10:00.937Z,73.96
2023-03-01T06:12:34.890Z,75.12
2023-03-01T06:15:10.799Z,75.45
2023-03-01T06:17:46.920Z,75.11
2023-03-01T06:20:22.539Z,75.64
2023-03-01T06:22:57.268Z,76.29
2023-03-01T06:25:30.401Z,75.05
2023-03-01T06:28:03.475Z,75.21
2023-03-01T06:30:36.647Z,75.90
2023-03-01T06:33:09.742Z,76.60
2023-03-01T06:35:42.854Z,76.00
2023-03-01T06:38:19.575Z,74.89
2023-03-01T06:40:57.498Z,75.50
2023-03-01T06:43:30.589Z,75.17
2023-03-01T06:46:07.746Z,74.74
2023-03-01T06:48:40.829Z,74.05
2023-03-01T06:51:13.876Z,73.34
2023-03-01T06:53:49.639Z,72.98
2023-03-01T06:56:22.677Z,73.00
2023-03-01T06:58:55.716Z,72.21
2023-03-01T07:01:28.869Z,71.69
2023-03-01T07:04:01.912Z,69.91
2023-03-01T07:06:35.209Z,70.22
2023-03-01T07:09:09.691Z,69.23
2023-03-01T07:11:43.193Z,69.01
2023-03-01T07:14:16.333Z,68.63
2023-03-01T07:16:49.396Z,68.30
2023-03-01T07:19:23.146Z,65.89
2023-03-01T07:21:56.858Z,66.77
2023-03-01T07:24:31.280Z,67.26
2023-03-01T07:27:04.770Z,67.33
2023-03-01T07:29:38.370Z,66.61
2023-03-01T07:32:12.999Z,65.84
2023-03-01T07:34:46.119Z,62.78
2023-03-01T07:37:19.212Z,63.64
2023-03-01T07:39:53.582Z,63.99
2023-03-01T07:42:26.779Z,64.65
2023-03-01T07:44:59.816Z,65.43
2023-03-01T07:47:33.518Z,64.26
2023-03-01T07:50:07.798Z,63.88
2023-03-01T07:52:40.999Z,64.40
2023-03-01T07:55:15.789Z,63.93
2023-03-01T07:57:48.882Z,62.85
2023-03-01T08:00:22.539Z,62.78
2023-03-01T08:02:55.699Z,60.99
2023-03-01T08:05:28.987Z,61.82
2023-03-01T08:08:02.033Z,61.96
2023-03-01T08:10:36.413Z,62.27
2023-03-01T08:13:09.510Z,62.33
2023-03-01T08:15:42.566Z,61.35
2023-03-01T08:18:15.605Z,61.09
2023-03-01T08:20:49.502Z,61.39
2023-03-01T08:23:22.793Z,61.68
2023-03-01T08:25:57.379Z,61.56
2023-03-01T08:28:30.442Z,62.24
2023-03-01T08:31:04.047Z,62.22
2023-03-01T08:33:37.135Z,61.12
2023-03-01T08:36:10.390Z,59.63
2023-03-01T08:38:43.448Z,60.17
2023-03-01T08:41:17.853Z,59.98
2023-03-01T08:43:51.863Z,59.14
2023-03-01T08:46:25.006Z,58.19
2023-03-01T08:48:58.558Z,59.32
2023-03-01T08:51:33.550Z,58.27
2023-03-01T08:54:07.803Z,59.17
2023-03-01T08:56:42.647Z,59.09
2023-03-01T08:59:18.160Z,58.36
2023-03-01T09:01:51.265Z,58.01
2023-03-01T09:04:24.803Z,56.80
2023-03-01T09:06:57.837Z,57.02
2023-03-01T09:09:30.925Z,58.27
2023-03-01T09:12:06.089Z,57.26
2023-03-01T09:14:39.847Z,56.49
2023-03-01T09:17:13.122Z,56.14
2023-03-01T09:19:46.333Z,55.08
2023-03-01T09:22:19.442Z,55.68
2023-03-01T09:24:52.564Z,57.07
2023-03-01T09:27:27.233Z,55.36
2023-03-01T09:30:00.286Z,54.53
2023-03-01T09:32:33.931Z,54.22
2023-03-01T09:35:08.533Z,54.69
2023-03-01T09:37:43.887Z,53.69
2023-03-01T09:40:21.530Z,53.54
2023-03-01T09:43:04.361Z,53.27
2023-03-01T09:45:40.462Z,52.57
2023-03-01T09:48:19.719Z,52.57
2023-03-01T09:50:53.822Z,53.93
2023-03-01T09:53:36.099Z,53.29
2023-03-01T09:56:21.955Z,53.54
2023-03-01T09:59:07.441Z,53.99
2023-03-01T10:01:48.716Z,53.36
2023-03-01T10:04:43.592Z,52.37
2023-03-01T10:07:30.373Z,52.62
2023-03-01T10:10:05.621Z,51.53
2023-03-01T10:12:42.727Z,51.84
2023-03-01T10:15:23.120Z,51.38
2023-03-01T10:18:04.093Z,52.04
2023-03-01T10:20:48.843Z,51.41
2023-03-01T10:23:22.102Z,50.58
2023-03-01T10:26:12.913Z,51.64
2023-03-01T10:28:56.535Z,50.93
2023-03-01T10:31:41.456Z,50.71
2023-03-01T10:34:18.462Z,51.29
2023-03-01T10:36:53.551Z,50.50
2023-03-01T10:39:28.486Z,50.36
2023-03-01T10:42:04.182Z,51.33
2023-03-01T10:44:45.318Z,51.06
2023-03-01T10:47:26.609Z,50.75
2023-03-01T10:50:05.454Z,50.09
2023-03-01T10:52:40.119Z,50.94
2023-03-01T10:55:30.322Z,50.21
2023-03-01T10:58:14.269Z,51.34
2023-03-01T11:00:53.751Z,51.03
2023-03-01T11:03:30.771Z,51.17
2023-03-01T11:06:14.750Z,50.80
2023-03-01T11:08:50.049Z,51.56
2023-03-01T11:11:33.673Z,51.63
2023-03-01T11:14:26.429Z,52.07
2023-03-01T11:17:04.066Z,51.62
2023-03-01T11:19:38.412Z,50.09
2023-03-01T11:22:16.384Z,51.26
2023-03-01T11:25:03.561Z,50.91
2023-03-01T11:27:46.675Z,50.34
2023-03-01T11:30:25.463Z,50.09
2023-03-01T11:33:12.954Z,50.41
2023-03-01T11:35:57.661Z,49.90
2023-03-01T11:38:35.830Z,50.85
2023-03-01T11:41:15.523Z,50.31
2023-03-01T11:43:55.025Z,50.73
2023-03-01T11:47:01.284Z,50.55
2023-03-01T11:50:00.849Z,50.62
2023-03-01T11:52:50.843Z,50.29
2023-03-01T11:56:01.283Z,50.54
2023-03-01T11:58:53.592Z,50.17
2023-03-01T12:01:53.827Z,50.74
2023-03-01T12:05:05.217Z,50.55
2023-03-01T12:07:48.829Z,49.93
2023-03-01T12:10:29.296Z,51.45
2023-03-01T12:13:30.314Z,50.43
2023-03-01T12:16:38.324Z,49.64
2023-03-01T12:19:41.480Z,49.90
2023-03-01T12:22:31.621Z,49.63
2023-03-01T12:25:28.702Z,49.86
2023-03-01T12:28:17.628Z,50.29
2023-03-01T12:31:31.269Z,49.55
2023-03-01T12:34:22.214Z,49.72
2023-03-01T12:37:26.057Z,48.52
2023-03-01T12:40:24.158Z,48.67
2023-03-01T12:43:11.273Z,48.96
2023-03-01T12:45:59.917Z,47.94
2023-03-01T12:48:45.135Z,48.61
2023-03-01T12:51:21.585Z,48.97
2023-03-01T12:53:58.319Z,48.63
2023-03-01T12:56:38.895Z,48.37
2023-03-01T12:59:20.962Z,48.48
2023-03-01T13:01:59.078Z,48.50
2023-03-01T13:04:47.055Z,49.23
2023-03-01T13:07:32.247Z,48.70
2023-03-01T13:10:25.351Z,49.34
2023-03-01T13:13:20.597Z,49.21
2023-03-01T13:15:55.118Z,48.79
2023-03-01T13:18:33.846Z,49.28
2023-03-01T13:21:08.185Z,49.40
2023-03-01T13:23:42.571Z,49.19
2023-03-01T13:26:18.170Z,49.43
2023-03-01T13:28:58.935Z,49.65
2023-03-01T13:32:04.591Z,49.30
2023-03-01T13:34:58.701Z,49.67
2023-03-01T13:37:40.509Z,49.76
2023-03-01T13:40:59.907Z,49.61
2023-03-01T13:43:36.889Z,49.69
2023-03-01T13:46:17.877Z,48.89
2023-03-01T13:48:54.614Z,50.00
2023-03-01T13:51:30.067Z,49.61
2023-03-01T13:54:03.176Z,49.81
2023-03-01T13:56:39.578Z,49.45
2023-03-01T13:59:20.049Z,49.54
2023-03-01T14:02:00.630Z,48.83
2023-03-01T14:04:36.842Z,49.58
2023-03-01T14:07:15.245Z,49.65
2023-03-01T14:09:53.457Z,48.99
2023-03-01T14:12:42.138Z,48.49
2023-03-01T14:15:22.080Z,48.42
2023-03-01T14:18:02.311Z,48.28
2023-03-01T14:20:41.166Z,48.80
2023-03-01T14:23:17.906Z,49.09
2023-03-01T14:25:53.520Z,48.78
2023-03-01T14:28:29.304Z,47.88
2023-03-01T14:31:03.830Z,47.37
2023-03-01T14:33:42.139Z,48.41
2023-03-01T14:36:15.820Z,48.75
2023-03-01T14:38:49.891Z,48.95
2023-03-01T14:41:26.612Z,48.34
2023-03-01T14:44:03.495Z,47.79
2023-03-01T14:46:39.704Z,47.11
2023-03-01T14:49:17.720Z,47.15
2023-03-01T14:51:56.828Z,47.69
2023-03-01T14:54:43.096Z,47.50
2023-03-01T14:57:19.264Z,47.46
2023-03-01T14:59:55.491Z,47.62
2023-03-01T15:02:30.910Z,47.68
2023-03-01T15:05:09.049Z,47.70
2023-03-01T15:07:49.707Z,47.40
2023-03-01T15:10:25.994Z,48.62
2023-03-01T15:13:12.630Z,48.43
2023-03-01T15:15:47.558Z,48.41
2023-03-01T15:18:24.792Z,48.02
2023-03-01T15:21:10.255Z,47.75
2023-03-01T15:23:43.596Z,47.71
2023-03-01T15:26:26.662Z,47.79
2023-03-01T15:29:01.881Z,48.36
2023-03-01T15:31:40.570Z,48.04
2023-03-01T15:34:25.879Z,48.00
2023-03-01T15:37:03.236Z,48.05
2023-03-01T15:39:40.832Z,48.01
2023-03-01T15:42:17.714Z,47.94
2023-03-01T15:44:50.865Z,47.67
2023-03-01T15:47:30.524Z,48.18
2023-03-01T15:50:04.301Z,48.17
2023-03-01T15:52:43.856Z,48.84
2023-03-01T15:55:20.342Z,49.16
2023-03-01T15:58:02.514Z,49.70
2023-03-01T16:00:35.725Z,49.23
2023-03-01T16:03:10.051Z,49.04
2023-03-01T16:05:43.164Z,49.49
2023-03-01T16:08:17.982Z,48.81
2023-03-01T16:10:52.505Z,48.89
2023-03-01T16:13:27.712Z,48.71
2023-03-01T16:16:02.132Z,49.30
2023-03-01T16:18:35.252Z,49.44
2023-03-01T16:21:08.454Z,49.75
2023-03-01T16:23:42.810Z,49.78
2023-03-01T16:26:16.429Z,49.38
2023-03-01T16:28:49.982Z,49.61
2023-03-01T16:31:23.227Z,49.95
2023-03-01T16:33:57.661Z,49.42
2023-03-01T16:36:30.664Z,49.99
2023-03-01T16:39:05.494Z,49.74
2023-03-01T16:41:38.564Z,50.22
2023-03-01T16:44:11.630Z,50.10
2023-03-01T16:46:44.915Z,50.52
2023-03-01T16:49:18.043Z,50.90
2023-03-01T16:51:51.237Z,50.22
2023-03-01T16:54:25.658Z,50.48
2023-03-01T16:56:58.947Z,50.50
2023-03-01T16:59:32.152Z,50.73
2023-03-01T17:02:06.905Z,50.97
2023-03-01T17:04:40.252Z,50.87
2023-03-01T17:07:13.560Z,51.09
2023-03-01T17:09:48.277Z,51.57
2023-03-01T17:12:21.403Z,51.84
2023-03-01T17:14:54.508Z,51.68
2023-03-01T17:17:27.864Z,51.35
2023-03-01T17:20:02.932Z,52.26
2023-03-01T17:22:37.669Z,52.24
2023-03-01T17:25:13.247Z,52.53
2023-03-01T17:27:46.470Z,52.45
2023-03-01T17:30:19.952Z,52.80
2023-03-01T17:32:56.006Z,52.99
2023-03-01T17:35:29.236Z,53.02
2023-03-01T17:38:02.298Z,53.10
2023-03-01T17:40:39.916Z,53.44
2023-03-01T17:43:13.539Z,54.20
2023-03-01T17:45:48.796Z,54.84
2023-03-01T17:48:22.010Z,55.71
2023-03-01T17:50:55.940Z,56.67
2023-03-01T17:53:30.004Z,57.44
2023-03-01T17:56:08.196Z,57.80
2023-03-01T17:58:41.357Z,58.31
2023-03-01T18:01:17.125Z,59.08
2023-03-01T18:03:53.225Z,60.43
2023-03-01T18:06:28.246Z,60.78
2023-03-01T18:09:01.893Z,61.08
2023-03-01T18:11:37.366Z,61.70
2023-03-01T18:14:10.495Z,62.13
2023-03-01T18:16:43.697Z,62.17
2023-03-01T18:19:16.785Z,63.38
2023-03-01T18:21:49.874Z,63.11
2023-03-01T18:24:22.981Z,63.67
2023-03-01T18:26:57.418Z,64.41
2023-03-01T18:29:30.707Z,64.99
2023-03-01T18:32:04.015Z,65.37
2023-03-01T18:34:37.198Z,65.39
2023-03-01T18:37:10.472Z,65.84
2023-03-01T18:39:43.652Z,66.17
2023-03-01T18:42:20.419Z,66.19
2023-03-01T18:44:53.929Z,66.01
2023-03-01T18:47:27.120Z,67.25
2023-03-01T18:50:00.319Z,66.66
2023-03-01T18:52:33.514Z,66.72
2023-03-01T18:55:07.453Z,66.63
2023-03-01T18:57:41.913Z,67.05
2023-03-01T19:00:18.593Z,67.47
2023-03-01T19:02:51.744Z,67.25
2023-03-01T19:05:24.905Z,67.85
2023-03-01T19:07:58.251Z,67.94
2023-03-01T19:10:31.808Z,68.63
2023-03-01T19:13:06.214Z,68.50
2023-03-01T19:15:39.542Z,68.75
2023-03-01T19:18:12.597Z,68.98
2023-03-01T19:20:46.833Z,68.84
2023-03-01T19:23:21.658Z,69.43
2023-03-01T19:26:01.193Z,69.40
2023-03-01T19:28:39.247Z,69.24
2023-03-01T19:31:16.655Z,70.26
2023-03-01T19:33:50.212Z,70.67
2023-03-01T19:36:32.774Z,70.68
2023-03-01T19:39:08.360Z,71.48
2023-03-01T19:41:41.909Z,71.09
2023-03-01T19:44:16.271Z,71.71
2023-03-01T19:46:49.372Z,72.48
2023-03-01T19:49:22.742Z,72.20
2023-03-01T19:51:55.801Z,72.83
2023-03-01T19:54:28.897Z,72.77
2023-03-01T19:57:02.032Z,73.43
2023-03-01T19:59:36.766Z,72.71
2023-03-01T20:02:12.239Z,73.19
2023-03-01T20:04:45.416Z,73.98
2023-03-01T20:07:19.668Z,73.65
2023-03-01T20:09:53.104Z,73.70
2023-03-01T20:12:26.304Z,74.17
2023-03-01T20:15:00.878Z,74.83
2023-03-01T20:17:33.943Z,74.53
2023-03-01T20:20:08.124Z,74.88
2023-03-01T20:22:41.628Z,74.39
2023-03-01T20:25:14.745Z,74.86
2023-03-01T20:27:47.852Z,75.15
2023-03-01T20:30:22.451Z,75.08
2023-03-01T20:32:55.544Z,74.57
2023-03-01T20:35:32.000Z,74.99
2023-03-01T20:38:05.304Z,75.06
2023-03-01T20:40:39.053Z,75.63
2023-03-01T20:43:12.163Z,75.18
2023-03-01T20:45:46.626Z,75.26
2023-03-01T20:48:19.681Z,75.62
2023-03-01T20:50:52.722Z,75.85
2023-03-01T20:53:25.961Z,75.61
2023-03-01T20:56:03.847Z,76.26
2023-03-01T20:58:36.957Z,76.19
2023-03-01T21:01:14.704Z,75.62
2023-03-01T21:03:48.966Z,76.18
2023-03-01T21:06:22.083Z,76.37
2023-03-01T21:08:55.789Z,75.26
2023-03-01T21:11:29.022Z,76.13
2023-03-01T21:14:02.244Z,75.68
2023-03-01T21:16:37.117Z,74.96
2023-03-01T21:19:11.066Z,74.78
2023-03-01T21:21:44.170Z,75.09
2023-03-01T21:24:17.280Z,74.59
2023-03-01T21:26:50.356Z,74.58
2023-03-01T21:29:23.610Z,73.30
2023-03-01T21:31:58.059Z,74.52
2023-03-01T21:34:31.145Z,74.29
2023-03-01T21:37:05.780Z,73.99
2023-03-01T21:39:39.383Z,73.41
2023-03-01T21:42:12.455Z,73.69
2023-03-01T21:44:45.541Z,73.37
2023-03-01T21:47:19.954Z,73.92
2023-03-01T21:49:53.037Z,73.24
2023-03-01T21:52:26.140Z,74.46
2023-03-01T21:55:01.960Z,74.30
2023-03-01T21:57:34.999Z,74.24
2023-03-01T22:00:10.645Z,73.64
2023-03-01T22:02:45.101Z,73.88
2023-03-01T22:05:18.367Z,74.78
2023-03-01T22:07:51.853Z,74.80
2023-03-01T22:10:27.238Z,74.37
2023-03-01T22:13:00.876Z,74.51
2023-03-01T22:15:33.918Z,75.25
2023-03-01T22:18:08.674Z,75.29
2023-03-01T22:20:42.248Z,74.73
2023-03-01T22:23:15.296Z,74.81
2023-03-01T22:25:48.341Z,75.24
2023-03-01T22:28:21.445Z,74.19
2023-03-01T22:30:54.722Z,74.63
2023-03-01T22:33:29.174Z,73.56
2023-03-01T22:36:02.340Z,72.88
2023-03-01T22:38:35.483Z,73.30
2023-03-01T22:41:08.706Z,73.07
2023-03-01T22:43:42.055Z,73.84
2023-03-01T22:46:19.296Z,74.53
2023-03-01T22:48:53.792Z,73.79
2023-03-01T22:51:30.124Z,74.31
2023-03-01T22:54:03.696Z,74.33
2023-03-01T22:56:38.653Z,75.25
2023-03-01T22:59:14.972Z,75.70
2023-03-01T23:01:48.583Z,74.21
2023-03-01T23:04:24.278Z,74.15
2023-03-01T23:06:58.156Z,74.75
2023-03-01T23:09:34.342Z,73.70
2023-03-01T23:12:09.279Z,74.70
2023-03-01T23:14:42.375Z,74.50
2023-03-01T23:17:15.486Z,74.22
2023-03-01T23:19:51.443Z,75.15
2023-03-01T23:22:25.085Z,75.52
2023-03-01T23:24:58.142Z,73.80
2023-03-01T23:27:31.497Z,73.59
2023-03-01T23:30:05.212Z,74.47
2023-03-01T23:32:40.727Z,74.01
2023-03-01T23:35:15.248Z,74.24
2023-03-01T23:37:48.346Z,74.67
2023-03-01T23:40:21.574Z,74.71
2023-03-01T23:42:54.577Z,74.86
2023-03-01T23:45:27.709Z,75.70
2023-03-01T23:48:00.789Z,75.49
2023-03-01T23:50:42.002Z,75.61
2023-03-01T23:53:18.982Z,75.94
2023-03-01T23:55:55.344Z,76.74
2023-03-01T23:58:29.312Z,77.05
